createdAt,value
2018-07-19T00:02:22.253Z,60.63
2018-07-19T00:04:49.518Z,60.90
2018-07-19T00:07:16.781Z,60.74
2018-07-19T00:09:44.090Z,60.70
2018-07-19T00:12:12.457Z,61.09
2018-07-19T00:14:39.719Z,60.55
2018-07-19T00:19:56.940Z,61.40
2018-07-19T00:22:24.229Z,61.86
2018-07-19T00:24:51.498Z,61.60
2018-07-19T00:27:18.824Z,61.34
2018-07-19T00:29:46.085Z,61.61
2018-07-19T00:32:13.319Z,61.71
2018-07-19T00:34:41.346Z,61.96
2018-07-19T00:37:08.658Z,62.02
2018-07-19T00:39:35.918Z,61.98
2018-07-19T00:42:03.187Z,63.04
2018-07-19T00:44:30.418Z,62.97
2018-07-19T00:46:57.727Z,63.59
2018-07-19T00:49:24.991Z,63.09
2018-07-19T00:51:58.916Z,63.16
2018-07-19T00:54:26.206Z,63.03
2018-07-19T00:56:53.475Z,62.79
2018-07-19T00:59:20.760Z,63.04
2018-07-19T01:01:48.033Z,63.03
2018-07-19T01:04:15.303Z,62.97
2018-07-19T01:06:44.839Z,62.99
2018-07-19T01:09:12.381Z,62.36
2018-07-19T01:11:39.835Z,62.65
2018-07-19T01:14:07.706Z,62.40
2018-07-19T01:16:35.171Z,62.80
2018-07-19T01:19:02.414Z,63.37
2018-07-19T01:21:29.898Z,63.50
2018-07-19T01:23:57.221Z,63.97
2018-07-19T01:26:24.497Z,63.98
2018-07-19T01:28:51.805Z,63.89
2018-07-19T01:31:19.103Z,64.02
2018-07-19T01:33:46.335Z,63.79
2018-07-19T01:36:13.807Z,64.23
2018-07-19T01:38:41.071Z,63.87
2018-07-19T01:41:19.942Z,64.00
2018-07-19T01:43:47.178Z,64.20
2018-07-19T01:46:14.446Z,64.71
2018-07-19T01:48:41.693Z,64.67
2018-07-19T01:51:08.977Z,64.91
2018-07-19T01:53:36.299Z,64.84
2018-07-19T01:56:03.575Z,65.09
2018-07-19T01:58:30.856Z,65.38
2018-07-19T02:00:58.124Z,65.82
2018-07-19T02:03:25.387Z,65.57
2018-07-19T02:05:52.654Z,66.07
2018-07-19T02:08:19.910Z,66.58
2018-07-19T02:10:47.223Z,66.96
2018-07-19T02:13:14.465Z,67.73
2018-07-19T02:15:41.750Z,67.56
2018-07-19T02:18:09.011Z,68.23
2018-07-19T02:20:36.294Z,68.37
2018-07-19T02:23:03.544Z,68.54
2018-07-19T02:25:32.838Z,68.64
2018-07-19T02:28:00.116Z,68.15
2018-07-19T02:30:27.372Z,68.21
2018-07-19T02:32:54.658Z,68.42
2018-07-19T02:35:21.899Z,68.69
2018-07-19T02:37:49.154Z,68.67
2018-07-19T02:40:16.413Z,69.11
2018-07-19T02:42:43.673Z,68.89
2018-07-19T02:45:10.919Z,69.07
2018-07-19T02:47:38.206Z,69.38
2018-07-19T02:50:05.465Z,68.62
2018-07-19T02:52:32.741Z,68.09
2018-07-19T02:55:00.003Z,67.96
2018-07-19T02:57:27.298Z,68.24
2018-07-19T02:59:54.604Z,67.63
2018-07-19T03:02:21.913Z,67.85
2018-07-19T03:04:49.231Z,67.92
2018-07-19T03:07:16.583Z,68.68
2018-07-19T03:09:43.903Z,69.44
2018-07-19T03:12:11.240Z,69.39
2018-07-19T03:14:39.494Z,69.68
2018-07-19T03:17:06.819Z,69.32
2018-07-19T03:19:35.635Z,68.95
2018-07-19T03:22:04.332Z,68.81
2018-07-19T03:24:32.854Z,68.93
2018-07-19T03:27:00.330Z,69.23
2018-07-19T03:29:27.684Z,68.64
2018-07-19T03:31:55.207Z,68.57
2018-07-19T03:34:22.528Z,68.26
2018-07-19T03:36:50.199Z,68.55
2018-07-19T03:39:17.558Z,67.87
2018-07-19T03:41:44.904Z,68.41
2018-07-19T03:44:12.287Z,67.98
2018-07-19T03:46:39.612Z,67.94
2018-07-19T03:49:06.960Z,68.41
2018-07-19T03:51:34.345Z,67.75
2018-07-19T03:54:01.717Z,67.39
2018-07-19T03:56:29.179Z,67.55
2018-07-19T03:58:56.545Z,68.03
2018-07-19T04:01:23.875Z,67.69
2018-07-19T04:03:51.286Z,67.76
2018-07-19T04:06:19.354Z,67.91
2018-07-19T04:08:47.384Z,68.37
2018-07-19T04:11:14.719Z,68.94
2018-07-19T04:13:42.093Z,68.62
2018-07-19T04:16:09.474Z,69.08
2018-07-19T04:18:36.913Z,68.61
2018-07-19T04:21:04.306Z,68.23
2018-07-19T04:23:31.674Z,67.75
2018-07-19T04:25:59.097Z,67.76
2018-07-19T04:28:27.577Z,67.26
2018-07-19T04:30:55.030Z,66.20
2018-07-19T04:33:22.415Z,66.03
2018-07-19T04:35:49.750Z,65.18
2018-07-19T04:38:17.248Z,64.88
2018-07-19T04:40:44.567Z,64.71
2018-07-19T04:43:11.918Z,64.94
2018-07-19T04:45:39.295Z,65.00
2018-07-19T04:48:06.667Z,64.77
2018-07-19T04:50:34.025Z,64.86
2018-07-19T04:53:01.403Z,63.82
2018-07-19T04:55:28.760Z,62.63
2018-07-19T04:57:56.772Z,62.45
2018-07-19T05:00:24.115Z,61.92
2018-07-19T05:02:51.470Z,61.82
2018-07-19T05:05:19.398Z,62.48
2018-07-19T05:07:46.720Z,61.97
2018-07-19T05:10:14.068Z,61.06
2018-07-19T05:12:41.429Z,60.42
2018-07-19T05:15:08.827Z,59.22
2018-07-19T05:17:36.199Z,58.52
2018-07-19T05:20:04.243Z,57.23
2018-07-19T05:22:32.174Z,54.30
2018-07-19T05:24:59.589Z,53.57
2018-07-19T05:27:27.437Z,53.56
2018-07-19T05:29:55.002Z,52.15
2018-07-19T05:32:22.475Z,51.59
2018-07-19T05:34:49.873Z,51.64
2018-07-19T05:37:17.922Z,50.84
2018-07-19T05:39:45.282Z,48.73
2018-07-19T05:42:12.688Z,48.87
2018-07-19T05:44:40.025Z,48.18
2018-07-19T05:47:07.611Z,48.28
2018-07-19T05:49:34.982Z,47.93
2018-07-19T05:52:02.363Z,48.24
2018-07-19T05:54:29.759Z,47.52
2018-07-19T05:56:57.127Z,46.96
2018-07-19T05:59:24.521Z,46.35
2018-07-19T06:01:51.903Z,45.74
2018-07-19T06:04:19.605Z,44.66
2018-07-19T06:06:46.961Z,44.12
2018-07-19T06:09:14.340Z,42.75
2018-07-19T06:11:41.659Z,42.17
2018-07-19T06:14:08.996Z,42.19
2018-07-19T06:16:36.378Z,42.24
2018-07-19T06:19:03.774Z,41.84
2018-07-19T06:21:31.175Z,41.62
2018-07-19T06:24:05.358Z,41.30
2018-07-19T06:26:32.700Z,41.13
2018-07-19T06:29:00.050Z,41.33
2018-07-19T06:31:27.746Z,40.23
2018-07-19T06:33:55.143Z,40.58
2018-07-19T06:36:22.479Z,40.64
2018-07-19T06:38:49.875Z,40.04
2018-07-19T06:41:17.531Z,39.05
2018-07-19T06:43:44.924Z,39.50
2018-07-19T06:46:13.004Z,39.06
2018-07-19T06:48:40.339Z,38.78
2018-07-19T06:51:07.887Z,37.91
2018-07-19T06:53:35.235Z,37.46
2018-07-19T06:56:02.614Z,37.02
2018-07-19T06:58:30.006Z,37.52
2018-07-19T07:00:57.324Z,37.90
2018-07-19T07:03:24.658Z,36.79
2018-07-19T07:05:51.963Z,36.74
2018-07-19T07:08:20.094Z,35.87
2018-07-19T07:10:47.436Z,36.81
2018-07-19T07:13:14.857Z,36.50
2018-07-19T07:15:42.223Z,35.37
2018-07-19T07:18:09.684Z,34.78
2018-07-19T07:20:41.097Z,34.72
2018-07-19T07:23:08.435Z,34.68
2018-07-19T07:25:43.806Z,34.48
2018-07-19T07:28:11.159Z,35.34
2018-07-19T07:30:38.482Z,34.76
2018-07-19T07:33:05.853Z,33.87
2018-07-19T07:35:33.200Z,33.73
2018-07-19T07:38:02.770Z,33.76
2018-07-19T07:40:30.110Z,32.58
2018-07-19T07:45:24.871Z,31.74
2018-07-19T07:47:52.278Z,31.05
2018-07-19T07:50:19.608Z,31.41
2018-07-19T07:52:46.901Z,30.56
2018-07-19T07:55:14.248Z,29.59
2018-07-19T07:57:41.588Z,30.35
2018-07-19T08:00:09.052Z,30.74
2018-07-19T08:02:36.432Z,30.00
2018-07-19T08:05:03.958Z,30.21
2018-07-19T08:07:31.187Z,31.29
2018-07-19T08:09:58.609Z,31.34
2018-07-19T08:12:26.912Z,30.05
2018-07-19T08:14:54.269Z,29.48
2018-07-19T08:17:21.570Z,30.04
2018-07-19T08:19:48.917Z,29.23
2018-07-19T08:22:16.276Z,29.37
2018-07-19T08:24:44.279Z,29.77
2018-07-19T08:27:11.598Z,28.87
2018-07-19T08:29:38.918Z,29.53
2018-07-19T08:32:06.591Z,29.66
2018-07-19T08:34:34.641Z,29.03
2018-07-19T08:37:01.937Z,29.13
2018-07-19T08:39:29.287Z,28.92
2018-07-19T08:42:00.160Z,29.07
2018-07-19T08:44:27.416Z,29.31
2018-07-19T08:46:54.822Z,29.68
2018-07-19T08:49:22.141Z,27.47
2018-07-19T08:51:49.498Z,28.56
2018-07-19T08:54:16.834Z,28.37
2018-07-19T08:56:44.255Z,27.41
2018-07-19T08:59:11.628Z,26.80
2018-07-19T09:01:39.188Z,27.02
2018-07-19T09:04:06.551Z,26.38
2018-07-19T09:06:33.905Z,26.72
2018-07-19T09:09:01.246Z,25.67
2018-07-19T09:11:28.615Z,27.01
2018-07-19T09:13:55.936Z,25.97
2018-07-19T09:16:23.273Z,26.45
2018-07-19T09:18:50.614Z,26.15
2018-07-19T09:21:18.035Z,26.48
2018-07-19T09:23:45.345Z,25.84
2018-07-19T09:26:12.686Z,25.70
2018-07-19T09:28:39.999Z,24.67
2018-07-19T09:31:07.370Z,24.18
2018-07-19T09:33:34.748Z,25.05
2018-07-19T09:36:02.212Z,24.08
2018-07-19T09:38:29.572Z,24.10
2018-07-19T09:40:59.247Z,23.78
2018-07-19T09:43:26.687Z,23.11
2018-07-19T09:45:54.110Z,22.90
2018-07-19T09:48:21.386Z,22.16
2018-07-19T09:50:48.796Z,21.54
2018-07-19T09:53:16.259Z,21.00
2018-07-19T09:55:43.598Z,21.21
2018-07-19T09:58:11.032Z,21.29
2018-07-19T10:00:43.906Z,20.29
2018-07-19T10:03:11.249Z,20.93
2018-07-19T10:05:38.675Z,21.56
2018-07-19T10:08:06.004Z,22.23
2018-07-19T10:10:33.562Z,20.61
2018-07-19T10:13:00.938Z,19.37
2018-07-19T10:15:28.416Z,20.05
2018-07-19T10:18:02.852Z,20.12
2018-07-19T10:20:30.267Z,20.47
2018-07-19T10:22:57.646Z,19.39
2018-07-19T10:25:25.095Z,20.70
2018-07-19T10:27:52.436Z,20.52
2018-07-19T10:30:20.557Z,19.47
2018-07-19T10:32:48.110Z,19.35
2018-07-19T10:35:15.459Z,19.08
2018-07-19T10:37:42.878Z,19.51
2018-07-19T10:40:10.203Z,19.81
2018-07-19T10:42:37.584Z,19.55
2018-07-19T10:45:05.004Z,19.68
2018-07-19T10:47:32.580Z,18.77
2018-07-19T10:49:59.929Z,18.64
2018-07-19T10:52:27.283Z,19.11
2018-07-19T10:54:54.663Z,19.38
2018-07-19T10:57:22.567Z,19.33
2018-07-19T10:59:49.869Z,18.62
2018-07-19T11:02:17.366Z,18.76
2018-07-19T11:04:44.755Z,18.92
2018-07-19T11:07:12.753Z,19.03
2018-07-19T11:09:40.112Z,18.56
2018-07-19T11:12:07.599Z,18.50
2018-07-19T11:14:35.223Z,17.83
2018-07-19T11:17:02.889Z,18.11
2018-07-19T11:19:30.192Z,17.99
2018-07-19T11:21:57.608Z,18.82
2018-07-19T11:24:25.000Z,18.45
2018-07-19T11:26:52.336Z,17.72
2018-07-19T11:29:21.045Z,17.31
2018-07-19T11:31:48.517Z,16.83
2018-07-19T11:34:15.882Z,17.70
2018-07-19T11:36:43.289Z,17.19
2018-07-19T11:39:10.613Z,17.86
2018-07-19T11:41:38.359Z,17.39
2018-07-19T11:44:05.814Z,17.47
2018-07-19T11:46:33.180Z,17.22
2018-07-19T11:49:00.965Z,18.23
2018-07-19T11:51:28.564Z,17.16
2018-07-19T11:53:56.115Z,17.93
2018-07-19T11:56:23.645Z,17.87
2018-07-19T11:58:51.011Z,17.04
2018-07-19T12:01:19.184Z,17.60
2018-07-19T12:03:46.503Z,17.02
2018-07-19T12:06:13.829Z,17.19
2018-07-19T12:08:41.224Z,17.23
2018-07-19T12:11:08.531Z,17.14
2018-07-19T12:13:36.087Z,16.87
2018-07-19T12:16:03.717Z,17.67
2018-07-19T12:18:31.019Z,17.30
2018-07-19T12:20:58.353Z,16.87
2018-07-19T12:23:25.845Z,18.23
2018-07-19T12:25:53.313Z,18.23
2018-07-19T12:28:20.636Z,17.97
2018-07-19T12:30:48.012Z,17.60
2018-07-19T12:33:15.473Z,18.92
2018-07-19T12:35:42.840Z,17.65
2018-07-19T12:38:10.202Z,18.28
2018-07-19T12:40:37.706Z,18.63
2018-07-19T12:43:05.671Z,18.02
2018-07-19T12:45:32.995Z,18.24
2018-07-19T12:48:00.354Z,17.49
2018-07-19T12:50:28.690Z,18.48
2018-07-19T12:52:56.054Z,18.17
2018-07-19T12:55:23.430Z,17.63
2018-07-19T12:57:51.300Z,17.16
2018-07-19T13:00:18.610Z,18.09
2018-07-19T13:02:46.940Z,18.24
2018-07-19T13:05:14.283Z,17.53
2018-07-19T13:07:41.654Z,17.19
2018-07-19T13:10:08.986Z,17.42
2018-07-19T13:12:36.372Z,17.65
2018-07-19T13:15:05.331Z,17.92
2018-07-19T13:17:32.776Z,18.19
2018-07-19T13:20:00.207Z,17.31
2018-07-19T13:22:27.636Z,17.81
2018-07-19T13:24:55.000Z,18.79
2018-07-19T13:27:22.655Z,18.18
2018-07-19T13:29:50.060Z,17.81
2018-07-19T13:32:20.123Z,17.22
2018-07-19T13:34:48.476Z,17.48
2018-07-19T13:37:16.000Z,18.08
2018-07-19T13:39:43.677Z,17.75
2018-07-19T13:42:11.101Z,17.61
2018-07-19T13:44:38.534Z,17.45
2018-07-19T13:47:06.049Z,18.22
2018-07-19T13:49:33.478Z,17.48
2018-07-19T13:52:00.886Z,18.27
2018-07-19T13:54:40.391Z,18.84
2018-07-19T13:57:08.607Z,19.79
2018-07-19T13:59:36.674Z,19.28
2018-07-19T14:02:04.156Z,19.35
2018-07-19T14:04:31.504Z,20.06
2018-07-19T14:06:58.983Z,19.20
2018-07-19T14:09:27.560Z,19.25
2018-07-19T14:11:54.923Z,19.96
2018-07-19T14:14:22.270Z,20.71
2018-07-19T14:16:49.602Z,20.73
2018-07-19T14:19:16.977Z,20.23
2018-07-19T14:21:44.329Z,19.97
2018-07-19T14:24:11.672Z,19.32
2018-07-19T14:26:39.242Z,19.77
2018-07-19T14:29:06.671Z,19.40
2018-07-19T14:31:34.594Z,18.52
2018-07-19T14:34:02.055Z,19.73
2018-07-19T14:36:29.412Z,20.34
2018-07-19T14:38:56.794Z,20.91
2018-07-19T14:41:24.089Z,20.30
2018-07-19T14:43:51.431Z,20.35
2018-07-19T14:46:19.336Z,20.19
2018-07-19T14:48:46.705Z,19.93
2018-07-19T14:51:14.187Z,20.10
2018-07-19T14:53:41.630Z,20.67
2018-07-19T14:56:10.276Z,20.60
2018-07-19T14:58:37.706Z,20.48
2018-07-19T15:01:05.129Z,21.37
2018-07-19T15:03:32.483Z,21.71
2018-07-19T15:05:59.853Z,22.01
2018-07-19T15:08:27.936Z,22.10
2018-07-19T15:10:55.375Z,22.44
2018-07-19T15:13:22.887Z,22.00
2018-07-19T15:15:50.301Z,21.75
2018-07-19T15:18:17.702Z,21.76
2018-07-19T15:20:45.052Z,21.97
2018-07-19T15:23:12.479Z,22.31
2018-07-19T15:25:39.831Z,21.79
2018-07-19T15:28:07.168Z,22.06
2018-07-19T15:30:34.570Z,22.21
2018-07-19T15:33:02.075Z,22.43
2018-07-19T15:35:29.557Z,22.61
2018-07-19T15:37:56.938Z,22.12
2018-07-19T15:40:24.555Z,22.44
2018-07-19T15:42:52.339Z,22.64
2018-07-19T15:45:20.451Z,22.11
2018-07-19T15:47:47.879Z,22.00
2018-07-19T15:50:15.234Z,21.50
2018-07-19T15:52:42.565Z,22.30
2018-07-19T15:55:10.192Z,22.27
2018-07-19T15:57:37.663Z,21.50
2018-07-19T16:00:11.235Z,21.48
2018-07-19T16:02:38.682Z,22.15
2018-07-19T16:05:06.249Z,22.17
2018-07-19T16:07:33.621Z,21.72
2018-07-19T16:10:01.580Z,21.58
2018-07-19T16:12:28.822Z,22.08
2018-07-19T16:14:56.175Z,21.38
2018-07-19T16:17:23.546Z,22.15
2018-07-19T16:19:50.918Z,21.84
2018-07-19T16:22:18.834Z,22.29
2018-07-19T16:24:47.293Z,22.06
2018-07-19T16:27:14.944Z,22.59
2018-07-19T16:29:42.836Z,22.68
2018-07-19T16:32:10.536Z,22.13
2018-07-19T16:34:37.887Z,22.73
2018-07-19T16:37:05.865Z,22.60
2018-07-19T16:39:33.243Z,23.14
2018-07-19T16:42:00.751Z,22.98
2018-07-19T16:44:28.145Z,22.77
2018-07-19T16:46:55.509Z,22.35
2018-07-19T16:49:22.819Z,21.82
2018-07-19T16:51:50.173Z,22.73
2018-07-19T16:54:17.558Z,22.79
2018-07-19T16:56:44.913Z,23.03
2018-07-19T16:59:12.788Z,22.66
2018-07-19T17:01:40.198Z,22.70
2018-07-19T17:04:07.656Z,22.73
2018-07-19T17:06:35.093Z,23.18
2018-07-19T17:09:02.729Z,23.22
2018-07-19T17:11:30.582Z,23.17
2018-07-19T17:13:58.529Z,22.95
2018-07-19T17:16:25.906Z,23.32
2018-07-19T17:18:53.515Z,23.42
2018-07-19T17:21:20.863Z,22.94
2018-07-19T17:23:48.201Z,22.52
2018-07-19T17:26:15.536Z,23.39
2018-07-19T17:28:42.866Z,23.21
2018-07-19T17:31:10.153Z,23.35
2018-07-19T17:33:37.451Z,23.56
2018-07-19T17:36:05.191Z,23.82
2018-07-19T17:38:32.460Z,24.24
2018-07-19T17:40:59.792Z,23.96
2018-07-19T17:43:27.096Z,24.58
2018-07-19T17:45:54.404Z,24.17
2018-07-19T17:48:21.919Z,24.73
2018-07-19T17:50:49.488Z,25.44
2018-07-19T17:53:16.950Z,25.12
2018-07-19T17:55:44.267Z,25.39
2018-07-19T17:58:11.701Z,25.74
2018-07-19T18:00:39.719Z,25.63
2018-07-19T18:03:07.092Z,26.10
2018-07-19T18:05:34.519Z,25.90
2018-07-19T18:08:01.836Z,25.78
2018-07-19T18:10:29.203Z,25.90
2018-07-19T18:12:56.535Z,25.94
2018-07-19T18:15:24.738Z,25.76
2018-07-19T18:17:52.351Z,26.30
2018-07-19T18:20:21.816Z,26.69
2018-07-19T18:22:50.195Z,26.83
2018-07-19T18:25:18.346Z,26.84
2018-07-19T18:27:45.694Z,26.66
2018-07-19T18:30:14.410Z,26.45
2018-07-19T18:32:41.906Z,26.75
2018-07-19T18:35:10.903Z,27.26
2018-07-19T18:37:38.507Z,27.37
2018-07-19T18:40:06.857Z,27.41
2018-07-19T18:42:35.993Z,27.78
2018-07-19T18:45:04.811Z,28.02
2018-07-19T18:47:34.733Z,28.16
2018-07-19T18:50:03.260Z,27.96
2018-07-19T18:52:33.616Z,28.37
2018-07-19T18:55:03.375Z,28.31
2018-07-19T18:57:33.763Z,28.67
2018-07-19T19:00:04.340Z,28.90
2018-07-19T19:02:33.546Z,29.26
2018-07-19T19:05:04.115Z,29.95
2018-07-19T19:07:33.021Z,29.51
2018-07-19T19:10:02.740Z,30.03
2018-07-19T19:12:32.336Z,30.20
2018-07-19T19:15:05.865Z,30.39
2018-07-19T19:17:37.870Z,30.64
2018-07-19T19:20:07.715Z,30.95
2018-07-19T19:22:39.282Z,31.02
2018-07-19T19:25:07.994Z,30.95
2018-07-19T19:27:36.497Z,31.16
2018-07-19T19:30:05.951Z,31.62
2018-07-19T19:35:13.001Z,31.39
2018-07-19T19:37:42.172Z,31.19
2018-07-19T19:40:15.955Z,31.74
2018-07-19T19:42:44.634Z,31.56
2018-07-19T19:45:12.113Z,31.65
2018-07-19T19:47:40.196Z,32.39
2018-07-19T19:50:11.275Z,32.44
2018-07-19T19:52:39.362Z,33.50
2018-07-19T19:55:09.007Z,33.77
2018-07-19T19:57:37.431Z,33.45
2018-07-19T20:00:05.848Z,33.56
2018-07-19T20:02:33.722Z,33.57
2018-07-19T20:05:01.459Z,33.19
2018-07-19T20:07:29.693Z,32.92
2018-07-19T20:09:57.239Z,32.61
2018-07-19T20:12:25.222Z,32.88
2018-07-19T20:14:52.969Z,32.97
2018-07-19T20:17:21.149Z,33.35
2018-07-19T20:19:48.756Z,33.62
2018-07-19T20:22:16.393Z,33.78
2018-07-19T20:24:43.983Z,34.30
2018-07-19T20:27:11.302Z,34.66
2018-07-19T20:29:38.548Z,35.11
2018-07-19T20:32:05.819Z,35.06
2018-07-19T20:34:33.083Z,35.08
2018-07-19T20:37:00.373Z,34.86
2018-07-19T20:39:27.678Z,34.74
2018-07-19T20:41:55.470Z,35.28
2018-07-19T20:44:22.895Z,35.49
2018-07-19T20:46:50.145Z,35.87
2018-07-19T20:49:17.410Z,35.85
2018-07-19T20:51:44.826Z,36.27
2018-07-19T20:54:12.083Z,36.29
2018-07-19T20:56:39.299Z,36.79
2018-07-19T20:59:06.885Z,37.10
2018-07-19T21:01:34.192Z,37.14
2018-07-19T21:04:01.474Z,37.62
2018-07-19T21:06:29.165Z,38.49
2018-07-19T21:08:56.745Z,38.48
2018-07-19T21:11:24.325Z,39.20
2018-07-19T21:13:51.897Z,39.27
2018-07-19T21:16:19.257Z,39.75
2018-07-19T21:18:46.583Z,40.14
2018-07-19T21:21:13.849Z,40.26
2018-07-19T21:23:41.113Z,40.53
2018-07-19T21:26:08.357Z,40.68
2018-07-19T21:28:35.647Z,41.33
2018-07-19T21:31:03.064Z,41.36
2018-07-19T21:33:30.335Z,41.41
2018-07-19T21:35:57.613Z,41.39
2018-07-19T21:38:24.910Z,41.91
2018-07-19T21:40:52.154Z,42.36
2018-07-19T21:43:20.543Z,42.28
2018-07-19T21:45:47.846Z,42.97
2018-07-19T21:48:15.106Z,43.24
2018-07-19T21:50:42.931Z,43.23
2018-07-19T21:53:10.614Z,44.21
2018-07-19T21:55:37.870Z,43.79
2018-07-19T21:58:05.505Z,44.24
2018-07-19T22:00:38.955Z,44.35
2018-07-19T22:03:06.254Z,44.22
2018-07-19T22:05:33.537Z,44.78
2018-07-19T22:08:00.785Z,44.92
2018-07-19T22:10:28.045Z,45.80
2018-07-19T22:12:55.426Z,45.98
2018-07-19T22:15:22.726Z,45.88
2018-07-19T22:17:49.995Z,45.42
2018-07-19T22:20:17.266Z,45.68
2018-07-19T22:22:44.509Z,45.60
2018-07-19T22:25:11.792Z,46.14
2018-07-19T22:27:39.059Z,46.13
2018-07-19T22:30:06.366Z,47.01
2018-07-19T22:32:33.938Z,47.24
2018-07-19T22:35:01.518Z,47.61
2018-07-19T22:37:28.803Z,47.93
2018-07-19T22:39:56.054Z,48.75
2018-07-19T22:42:23.285Z,49.12
2018-07-19T22:44:50.823Z,49.42
2018-07-19T22:47:18.071Z,49.19
2018-07-19T22:49:45.322Z,49.70
2018-07-19T22:52:12.578Z,50.52
2018-07-19T22:54:39.891Z,50.54
2018-07-19T22:57:07.364Z,50.92
2018-07-19T22:59:34.670Z,50.62
2018-07-19T23:02:01.990Z,50.58
2018-07-19T23:04:29.255Z,50.48
2018-07-19T23:06:56.485Z,51.26
2018-07-19T23:09:24.153Z,50.79
2018-07-19T23:11:51.759Z,51.28
2018-07-19T23:14:19.066Z,50.99
2018-07-19T23:16:46.899Z,51.24
2018-07-19T23:19:16.360Z,50.18
2018-07-19T23:21:44.008Z,50.92
2018-07-19T23:24:11.449Z,51.26
2018-07-19T23:26:38.724Z,50.78
2018-07-19T23:29:06.042Z,51.39
2018-07-19T23:31:33.909Z,52.16
2018-07-19T23:34:01.561Z,52.71
2018-07-19T23:36:35.242Z,53.02
2018-07-19T23:39:08.660Z,53.15
2018-07-19T23:41:42.393Z,52.79
2018-07-19T23:44:14.186Z,52.73
2018-07-19T23:46:49.138Z,52.23
2018-07-19T23:49:16.382Z,52.24
2018-07-19T23:51:43.633Z,52.30
2018-07-19T23:54:10.906Z,52.63
2018-07-19T23:56:38.521Z,53.07
2018-07-19T23:59:05.804Z,53.63
